createdAt,value
2018-10-06T00:01:31.582Z,13.70
2018-10-06T00:06:35.693Z,13.50
2018-10-06T00:11:39.884Z,13.50
2018-10-06T00:16:44.024Z,13.50
2018-10-06T00:21:48.304Z,13.50
2018-10-06T00:26:52.446Z,13.50
2018-10-06T00:31:56.583Z,13.40
2018-10-06T00:37:00.702Z,13.40
2018-10-06T00:42:04.785Z,13.30
2018-10-06T00:47:08.940Z,13.30
2018-10-06T00:52:13.041Z,13.20
2018-10-06T00:57:17.096Z,13.20
2018-10-06T01:02:21.191Z,13.10
2018-10-06T01:12:30.082Z,12.90
2018-10-06T01:17:34.156Z,12.90
2018-10-06T01:22:38.263Z,12.90
2018-10-06T01:27:42.370Z,12.90
2018-10-06T01:32:46.455Z,12.80
2018-10-06T01:37:50.567Z,12.80
2018-10-06T01:47:58.396Z,12.90
2018-10-06T01:58:06.293Z,13.00
2018-10-06T02:08:14.406Z,13.00
2018-10-06T02:13:18.497Z,13.00
2018-10-06T02:18:22.568Z,13.20
2018-10-06T02:28:30.367Z,12.90
2018-10-06T02:33:34.505Z,12.70
2018-10-06T02:38:38.609Z,12.60
2018-10-06T02:43:42.684Z,12.60
2018-10-06T02:48:46.766Z,12.60
2018-10-06T02:53:50.862Z,12.60
2018-10-06T02:58:54.937Z,12.50
2018-10-06T03:03:59.053Z,12.50
2018-10-06T03:09:03.560Z,12.60
2018-10-06T03:14:07.654Z,12.30
2018-10-06T03:19:11.752Z,12.30
2018-10-06T03:24:15.887Z,12.40
2018-10-06T03:34:23.923Z,12.50
2018-10-06T03:44:31.684Z,12.50
2018-10-06T03:49:35.940Z,12.60
2018-10-06T03:54:40.081Z,12.60
2018-10-06T03:59:44.177Z,12.70
2018-10-06T04:04:48.293Z,12.60
2018-10-06T04:09:52.465Z,12.90
2018-10-06T04:14:56.561Z,13.10
2018-10-06T04:20:00.690Z,13.20
2018-10-06T04:25:04.898Z,13.00
2018-10-06T04:30:09.605Z,12.70
2018-10-06T04:35:14.278Z,12.40
2018-10-06T04:40:18.394Z,12.40
2018-10-06T04:45:22.603Z,12.40
2018-10-06T04:50:26.671Z,12.40
2018-10-06T04:55:30.745Z,12.50
2018-10-06T05:00:34.845Z,12.50
2018-10-06T05:05:38.934Z,12.80
2018-10-06T05:10:43.016Z,17.50
2018-10-06T05:15:47.110Z,11.60
2018-10-06T05:20:51.181Z,12.90
2018-10-06T05:25:55.446Z,12.90
2018-10-06T05:30:59.511Z,12.90
2018-10-06T05:36:03.622Z,13.00
2018-10-06T05:41:07.749Z,12.90
2018-10-06T05:46:11.828Z,12.90
2018-10-06T05:51:16.782Z,12.90
2018-10-06T05:56:20.888Z,12.90
2018-10-06T06:01:24.950Z,12.90
2018-10-06T06:06:29.020Z,12.90
2018-10-06T06:11:33.806Z,12.90
2018-10-06T06:16:40.075Z,13.00
2018-10-06T06:21:45.383Z,12.20
2018-10-06T06:26:50.846Z,13.70
2018-10-06T06:31:54.990Z,13.90
2018-10-06T06:36:59.066Z,14.10
2018-10-06T06:42:03.121Z,14.10
2018-10-06T06:47:07.586Z,14.20
2018-10-06T06:52:11.666Z,14.50
2018-10-06T06:57:15.839Z,15.00
2018-10-06T07:02:19.925Z,15.40
2018-10-06T07:07:24.002Z,15.70
2018-10-06T07:12:28.118Z,15.70
2018-10-06T07:17:32.165Z,16.20
2018-10-06T07:22:36.239Z,16.70
2018-10-06T07:27:40.316Z,16.80
2018-10-06T07:32:44.621Z,17.30
2018-10-06T07:37:48.790Z,17.10
2018-10-06T07:42:52.919Z,17.00
2018-10-06T07:47:57.071Z,16.90
2018-10-06T07:53:01.223Z,16.70
2018-10-06T07:58:05.314Z,17.40
2018-10-06T08:03:09.427Z,17.50
2018-10-06T08:08:13.521Z,18.00
2018-10-06T08:13:17.674Z,18.60
2018-10-06T08:18:21.863Z,19.50
2018-10-06T08:23:25.976Z,20.60
2018-10-06T08:28:30.041Z,20.90
2018-10-06T08:33:34.262Z,20.00
2018-10-06T08:38:38.343Z,20.70
2018-10-06T08:43:42.457Z,22.00
2018-10-06T08:48:46.615Z,21.60
2018-10-06T08:53:50.843Z,21.50
2018-10-06T09:04:13.670Z,21.90
2018-10-06T09:09:17.658Z,22.10
2018-10-06T09:14:21.684Z,22.80
2018-10-06T09:19:25.782Z,22.70
2018-10-06T09:24:30.003Z,21.80
2018-10-06T09:29:34.144Z,23.30
2018-10-06T09:34:38.232Z,24.00
2018-10-06T09:39:42.336Z,24.20
2018-10-06T09:44:46.599Z,26.70
2018-10-06T09:49:50.625Z,27.40
2018-10-06T09:54:54.875Z,25.50
2018-10-06T09:59:59.067Z,26.60
2018-10-06T10:05:08.564Z,24.50
2018-10-06T10:10:12.660Z,25.40
2018-10-06T10:15:16.819Z,25.80
2018-10-06T10:20:20.987Z,24.50
2018-10-06T10:25:25.046Z,25.30
2018-10-06T10:30:29.145Z,25.60
2018-10-06T10:35:33.260Z,26.50
2018-10-06T10:40:37.400Z,24.20
2018-10-06T10:45:41.504Z,25.30
2018-10-06T10:50:45.674Z,26.70
2018-10-06T10:55:49.681Z,28.60
2018-10-06T11:00:53.699Z,29.10
2018-10-06T11:05:57.900Z,29.40
2018-10-06T11:11:01.947Z,28.50
2018-10-06T11:16:06.096Z,28.00
2018-10-06T11:21:10.531Z,28.40
2018-10-06T11:26:14.676Z,28.50
2018-10-06T11:31:18.848Z,30.50
2018-10-06T11:36:22.977Z,29.60
2018-10-06T11:41:27.040Z,29.90
2018-10-06T11:46:31.379Z,30.60
2018-10-06T11:51:35.419Z,30.60
2018-10-06T11:56:39.639Z,28.40
2018-10-06T12:01:43.804Z,29.20
2018-10-06T12:06:47.906Z,30.10
2018-10-06T12:11:52.084Z,30.80
2018-10-06T12:16:56.359Z,30.40
2018-10-06T12:22:00.503Z,29.80
2018-10-06T12:27:04.712Z,30.50
2018-10-06T12:32:08.836Z,31.70
2018-10-06T12:37:13.104Z,30.10
2018-10-06T12:42:17.319Z,32.10
2018-10-06T12:47:21.448Z,31.20
2018-10-06T12:52:25.584Z,31.40
2018-10-06T12:57:29.691Z,29.60
2018-10-06T13:02:34.022Z,29.70
2018-10-06T13:07:38.083Z,30.50
2018-10-06T13:12:42.184Z,30.60
2018-10-06T13:17:46.319Z,29.50
2018-10-06T13:22:50.464Z,30.90
2018-10-06T13:27:54.503Z,30.80
2018-10-06T13:32:58.568Z,29.90
2018-10-06T13:38:02.642Z,29.80
2018-10-06T13:43:06.749Z,28.40
2018-10-06T13:48:10.914Z,27.40
2018-10-06T13:53:15.016Z,27.00
2018-10-06T13:58:19.141Z,27.10
2018-10-06T14:03:23.299Z,27.00
2018-10-06T14:08:27.543Z,25.90
2018-10-06T14:13:31.820Z,28.80
2018-10-06T14:18:36.024Z,29.20
2018-10-06T14:23:40.231Z,29.30
2018-10-06T14:28:44.345Z,28.80
2018-10-06T14:33:48.416Z,28.30
2018-10-06T14:38:52.568Z,28.40
2018-10-06T14:43:56.720Z,28.00
2018-10-06T14:49:01.143Z,28.50
2018-10-06T14:54:05.363Z,28.70
2018-10-06T14:59:09.468Z,27.40
2018-10-06T15:04:13.632Z,28.60
2018-10-06T15:09:17.767Z,27.60
2018-10-06T15:14:21.912Z,26.70
2018-10-06T15:19:25.995Z,26.40
2018-10-06T15:24:30.200Z,26.40
2018-10-06T15:29:34.450Z,26.10
2018-10-06T15:34:38.643Z,27.50
2018-10-06T15:39:42.908Z,27.00
2018-10-06T15:44:47.092Z,26.20
2018-10-06T15:49:51.176Z,25.70
2018-10-06T15:54:55.348Z,25.50
2018-10-06T15:59:59.439Z,25.40
2018-10-06T16:05:03.650Z,25.30
2018-10-06T16:10:07.808Z,25.00
2018-10-06T16:15:11.982Z,24.70
2018-10-06T16:20:16.133Z,24.50
2018-10-06T16:25:20.260Z,24.50
2018-10-06T16:30:24.355Z,24.30
2018-10-06T16:35:28.395Z,24.20
2018-10-06T16:40:32.491Z,23.90
2018-10-06T16:45:36.700Z,23.50
2018-10-06T16:50:40.965Z,23.20
2018-10-06T16:55:45.107Z,22.90
2018-10-06T17:00:49.210Z,22.80
2018-10-06T17:05:53.370Z,22.70
2018-10-06T17:10:57.416Z,22.30
2018-10-06T17:16:01.468Z,22.00
2018-10-06T17:21:05.617Z,21.90
2018-10-06T17:26:09.724Z,21.70
2018-10-06T17:31:13.845Z,21.60
2018-10-06T17:36:17.970Z,21.30
2018-10-06T17:41:22.136Z,21.10
2018-10-06T17:46:26.236Z,20.70
2018-10-06T17:51:30.372Z,20.50
2018-10-06T17:56:34.492Z,20.30
2018-10-06T18:01:38.562Z,20.40
2018-10-06T18:06:42.704Z,20.60
2018-10-06T18:11:46.792Z,20.60
2018-10-06T18:16:50.968Z,20.70
2018-10-06T18:21:55.096Z,20.70
2018-10-06T18:26:59.232Z,20.60
2018-10-06T18:32:03.224Z,20.60
2018-10-06T18:37:07.379Z,20.60
2018-10-06T18:42:11.791Z,20.50
2018-10-06T18:47:16.057Z,20.60
2018-10-06T18:52:20.227Z,20.60
2018-10-06T18:57:24.291Z,20.50
2018-10-06T19:02:28.438Z,20.40
2018-10-06T19:07:32.647Z,20.30
2018-10-06T19:12:36.775Z,20.20
2018-10-06T19:17:40.925Z,20.20
2018-10-06T19:22:44.976Z,20.10
2018-10-06T19:27:49.105Z,20.10
2018-10-06T19:32:53.332Z,19.90
2018-10-06T19:37:58.299Z,19.80
2018-10-06T19:43:03.112Z,19.80
2018-10-06T19:48:07.221Z,19.80
2018-10-06T19:53:11.275Z,19.70
2018-10-06T19:58:15.324Z,19.70
2018-10-06T20:03:19.496Z,19.60
2018-10-06T20:08:23.585Z,19.50
2018-10-06T20:13:27.580Z,19.50
2018-10-06T20:18:31.699Z,19.50
2018-10-06T20:23:35.764Z,19.50
2018-10-06T20:28:39.932Z,19.60
2018-10-06T20:33:43.933Z,19.60
2018-10-06T20:38:48.138Z,19.50
2018-10-06T20:43:52.256Z,19.50
2018-10-06T20:48:56.340Z,19.50
2018-10-06T20:54:00.472Z,19.50
2018-10-06T20:59:04.523Z,19.60
2018-10-06T21:04:08.565Z,19.60
2018-10-06T21:09:13.502Z,19.60
2018-10-06T21:14:17.602Z,19.50
2018-10-06T21:19:21.675Z,19.40
2018-10-06T21:24:25.776Z,19.40
2018-10-06T21:29:29.948Z,19.20
2018-10-06T21:34:33.752Z,19.20
2018-10-06T21:39:37.799Z,19.00
2018-10-06T21:44:41.816Z,18.90
2018-10-06T21:49:45.824Z,18.90
2018-10-06T21:54:49.843Z,18.60
2018-10-06T21:59:53.960Z,18.60
2018-10-06T22:06:00.999Z,18.50
2018-10-06T22:11:05.124Z,18.60
2018-10-06T22:16:09.316Z,18.50
2018-10-06T22:21:13.369Z,18.50
2018-10-06T22:26:17.625Z,18.50
2018-10-06T22:31:21.690Z,18.40
2018-10-06T22:36:26.404Z,18.30
2018-10-06T22:41:30.478Z,18.20
2018-10-06T22:46:35.319Z,18.00
2018-10-06T22:57:16.290Z,17.60
2018-10-06T23:02:20.467Z,17.20
2018-10-06T23:07:24.583Z,17.40
2018-10-06T23:12:28.769Z,17.50
2018-10-06T23:17:33.840Z,17.70
2018-10-06T23:22:37.969Z,17.90
2018-10-06T23:27:42.104Z,18.10
2018-10-06T23:32:46.275Z,18.50
2018-10-06T23:37:50.399Z,18.20
2018-10-06T23:42:54.520Z,18.20
2018-10-06T23:47:58.656Z,18.10
2018-10-06T23:53:02.779Z,18.10
2018-10-06T23:58:06.942Z,18.10
